createdAt,value
2023-02-08T00:01:16.625Z,11.75
2023-02-08T00:03:43.223Z,11.07
2023-02-08T00:06:10.685Z,11.15
2023-02-08T00:08:37.732Z,10.63
2023-02-08T00:11:05.715Z,12.15
2023-02-08T00:13:33.015Z,11.27
2023-02-08T00:16:18.851Z,10.68
2023-02-08T00:18:45.517Z,10.07
2023-02-08T00:21:15.660Z,10.13
2023-02-08T00:23:42.416Z,10.65
2023-02-08T00:26:09.521Z,10.18
2023-02-08T00:28:37.798Z,11.02
2023-02-08T00:31:05.414Z,10.73
2023-02-08T00:33:32.091Z,11.68
2023-02-08T00:36:04.610Z,11.48
2023-02-08T00:38:31.213Z,12.57
2023-02-08T00:40:57.742Z,12.18
2023-02-08T00:43:24.270Z,12.05
2023-02-08T00:45:55.511Z,13.95
2023-02-08T00:48:22.233Z,12.18
2023-02-08T00:51:07.513Z,11.95
2023-02-08T00:53:38.940Z,11.90
2023-02-08T00:56:07.262Z,10.85
2023-02-08T00:58:34.887Z,10.60
2023-02-08T01:01:03.527Z,10.50
2023-02-08T01:03:30.024Z,10.63
2023-02-08T01:06:01.703Z,11.43
2023-02-08T01:08:28.219Z,10.18
2023-02-08T01:11:10.135Z,10.63
2023-02-08T01:13:38.139Z,9.52
2023-02-08T01:16:15.134Z,10.90
2023-02-08T01:19:01.830Z,10.43
2023-02-08T01:21:49.150Z,9.70
2023-02-08T01:24:15.754Z,10.00
2023-02-08T01:27:00.879Z,10.00
2023-02-08T01:29:47.636Z,10.43
2023-02-08T01:32:34.446Z,9.48
2023-02-08T01:35:21.176Z,10.98
2023-02-08T01:38:08.002Z,11.73
2023-02-08T01:40:55.018Z,9.57
2023-02-08T01:44:02.125Z,10.20
2023-02-08T01:46:51.119Z,11.35
2023-02-08T01:52:21.990Z,10.57
2023-02-08T01:54:56.206Z,9.60
2023-02-08T01:57:42.898Z,10.40
2023-02-08T02:00:28.383Z,10.48
2023-02-08T02:03:14.388Z,10.77
2023-02-08T02:06:14.088Z,10.18
2023-02-08T02:09:17.626Z,9.93
2023-02-08T02:12:07.753Z,9.98
2023-02-08T02:14:55.267Z,11.05
2023-02-08T02:17:42.260Z,10.25
2023-02-08T02:20:29.240Z,10.02
2023-02-08T02:23:16.883Z,10.27
2023-02-08T02:25:58.380Z,11.30
2023-02-08T02:28:36.433Z,10.40
2023-02-08T02:31:23.477Z,9.85
2023-02-08T02:34:23.200Z,9.68
2023-02-08T02:37:15.891Z,10.50
2023-02-08T02:40:08.493Z,10.25
2023-02-08T02:43:07.270Z,10.32
2023-02-08T02:45:39.870Z,10.57
2023-02-08T02:48:17.180Z,10.73
2023-02-08T02:51:31.759Z,11.52
2023-02-08T02:54:25.649Z,10.30
2023-02-08T02:57:16.085Z,11.07
2023-02-08T03:00:08.729Z,11.25
2023-02-08T03:02:56.094Z,10.32
2023-02-08T03:05:42.928Z,10.82
2023-02-08T03:09:09.879Z,11.10
2023-02-08T03:12:34.412Z,10.25
2023-02-08T03:15:51.811Z,11.32
2023-02-08T03:18:33.592Z,10.77
2023-02-08T03:21:19.296Z,10.75
2023-02-08T03:24:01.611Z,12.25
2023-02-08T03:27:12.276Z,10.85
2023-02-08T03:30:10.901Z,11.80
2023-02-08T03:32:40.334Z,10.93
2023-02-08T03:35:15.334Z,10.13
2023-02-08T03:37:58.253Z,10.77
2023-02-08T03:40:31.072Z,10.68
2023-02-08T03:43:03.474Z,11.15
2023-02-08T03:46:03.123Z,10.90
2023-02-08T03:48:31.800Z,11.35
2023-02-08T03:51:01.895Z,11.05
2023-02-08T03:53:32.477Z,10.80
2023-02-08T03:56:04.988Z,11.32
2023-02-08T03:58:38.600Z,11.05
2023-02-08T04:01:31.967Z,10.75
2023-02-08T04:03:59.837Z,10.55
2023-02-08T04:06:26.692Z,10.85
2023-02-08T04:08:56.418Z,11.38
2023-02-08T04:11:53.098Z,11.45
2023-02-08T04:14:38.158Z,11.10
2023-02-08T04:17:06.026Z,10.98
2023-02-08T04:19:51.278Z,9.95
2023-02-08T04:22:18.671Z,10.77
2023-02-08T04:25:04.394Z,10.68
2023-02-08T04:27:56.736Z,10.40
2023-02-08T04:30:42.004Z,10.50
2023-02-08T04:33:27.333Z,10.90
2023-02-08T04:36:12.737Z,10.50
2023-02-08T04:38:57.600Z,10.23
2023-02-08T04:41:24.089Z,10.88
2023-02-08T04:43:50.541Z,10.10
2023-02-08T04:46:35.499Z,10.98
2023-02-08T04:49:21.022Z,11.23
2023-02-08T04:52:06.706Z,10.95
2023-02-08T04:54:53.481Z,9.90
2023-02-08T04:57:20.096Z,10.73
2023-02-08T04:59:46.527Z,10.77
2023-02-08T05:02:12.991Z,11.40
2023-02-08T05:04:39.469Z,11.13
2023-02-08T05:07:05.937Z,10.63
2023-02-08T05:09:33.071Z,10.95
2023-02-08T05:11:59.587Z,10.35
2023-02-08T05:14:44.954Z,10.90
2023-02-08T05:17:19.038Z,10.95
2023-02-08T05:20:04.913Z,10.85
2023-02-08T05:22:50.005Z,10.73
2023-02-08T05:25:35.027Z,10.80
2023-02-08T05:28:17.204Z,10.70
2023-02-08T05:31:18.544Z,10.63
2023-02-08T05:34:03.897Z,10.68
2023-02-08T05:36:50.734Z,11.10
2023-02-08T05:39:37.499Z,10.80
2023-02-08T05:42:24.263Z,10.07
2023-02-08T05:45:11.068Z,11.93
2023-02-08T05:47:57.956Z,10.50
2023-02-08T05:50:44.746Z,10.75
2023-02-08T05:53:31.765Z,10.95
2023-02-08T05:56:18.613Z,10.38
2023-02-08T05:59:05.401Z,10.15
2023-02-08T06:01:52.165Z,10.63
2023-02-08T06:04:39.242Z,11.00
2023-02-08T06:07:26.130Z,10.13
2023-02-08T06:10:12.902Z,10.27
2023-02-08T06:12:59.712Z,10.05
2023-02-08T06:15:46.565Z,10.18
2023-02-08T06:18:33.358Z,9.77
2023-02-08T06:21:20.120Z,10.23
2023-02-08T06:23:46.700Z,10.65
2023-02-08T06:26:13.291Z,10.65
2023-02-08T06:29:00.432Z,10.43
2023-02-08T06:31:45.295Z,10.32
2023-02-08T06:34:32.099Z,10.68
2023-02-08T06:37:02.160Z,11.63
2023-02-08T06:39:29.660Z,10.00
2023-02-08T06:41:56.132Z,10.10
2023-02-08T06:44:22.661Z,10.25
2023-02-08T06:46:49.442Z,10.00
2023-02-08T06:49:16.187Z,10.00
2023-02-08T06:51:42.816Z,10.05
2023-02-08T06:54:10.035Z,9.75
2023-02-08T06:56:36.719Z,9.65
2023-02-08T06:59:21.983Z,10.20
2023-02-08T07:01:48.451Z,9.35
2023-02-08T07:04:14.945Z,10.10
2023-02-08T07:06:41.437Z,9.98
2023-02-08T07:09:26.580Z,10.70
2023-02-08T07:12:12.121Z,11.45
2023-02-08T07:14:41.371Z,9.50
2023-02-08T07:17:07.956Z,10.35
2023-02-08T07:19:34.526Z,11.20
2023-02-08T07:22:07.941Z,11.38
2023-02-08T07:24:52.833Z,10.63
2023-02-08T07:27:38.119Z,11.32
2023-02-08T07:30:05.858Z,11.15
2023-02-08T07:32:34.758Z,10.98
2023-02-08T07:35:19.820Z,11.35
2023-02-08T07:38:04.802Z,10.40
2023-02-08T07:40:32.125Z,10.07
2023-02-08T07:42:58.635Z,10.90
2023-02-08T07:45:25.741Z,10.48
2023-02-08T07:47:52.252Z,9.88
2023-02-08T07:50:37.225Z,10.75
2023-02-08T07:53:03.761Z,11.02
2023-02-08T07:55:32.213Z,10.13
2023-02-08T07:58:17.541Z,10.13
2023-02-08T08:00:44.376Z,9.38
2023-02-08T08:03:10.891Z,9.32
2023-02-08T08:05:41.077Z,10.45
2023-02-08T08:08:26.283Z,9.85
2023-02-08T08:10:52.935Z,10.18
2023-02-08T08:13:19.391Z,9.88
2023-02-08T08:15:47.345Z,10.43
2023-02-08T08:18:14.163Z,8.60
2023-02-08T08:20:40.961Z,9.50
2023-02-08T08:23:07.915Z,8.52
2023-02-08T08:25:34.522Z,9.73
2023-02-08T08:28:02.059Z,8.65
2023-02-08T08:30:28.602Z,9.38
2023-02-08T08:32:55.046Z,8.63
2023-02-08T08:35:35.327Z,9.38
2023-02-08T08:38:01.816Z,9.23
2023-02-08T08:40:29.793Z,9.68
2023-02-08T08:43:15.942Z,8.90
2023-02-08T08:45:42.526Z,10.30
2023-02-08T08:48:09.546Z,9.27
2023-02-08T08:50:36.064Z,9.02
2023-02-08T08:53:22.094Z,9.32
2023-02-08T08:56:07.319Z,8.35
2023-02-08T08:58:52.446Z,8.88
2023-02-08T09:01:38.862Z,9.85
2023-02-08T09:04:05.509Z,8.57
2023-02-08T09:06:32.165Z,8.85
2023-02-08T09:08:58.654Z,8.93
2023-02-08T09:11:25.826Z,8.75
2023-02-08T09:13:55.388Z,8.63
2023-02-08T09:16:23.989Z,8.57
2023-02-08T09:18:50.852Z,8.43
2023-02-08T09:21:21.033Z,8.00
2023-02-08T09:23:48.118Z,8.18
2023-02-08T09:28:44.827Z,8.77
2023-02-08T09:31:18.652Z,8.38
2023-02-08T09:33:45.220Z,8.73
2023-02-08T09:36:11.723Z,8.35
2023-02-08T09:38:42.047Z,9.02
2023-02-08T09:41:42.646Z,8.25
2023-02-08T09:44:20.347Z,8.18
2023-02-08T09:47:18.469Z,7.95
2023-02-08T09:50:14.095Z,7.78
2023-02-08T09:52:45.540Z,8.57
2023-02-08T09:55:36.897Z,8.27
2023-02-08T09:58:15.678Z,7.68
2023-02-08T10:00:45.667Z,7.65
2023-02-08T10:03:27.946Z,8.05
2023-02-08T10:05:54.921Z,9.48
2023-02-08T10:08:22.914Z,8.77
2023-02-08T10:10:58.992Z,8.00
2023-02-08T10:13:56.764Z,9.10
2023-02-08T10:16:35.862Z,8.70
2023-02-08T10:22:00.323Z,8.50
2023-02-08T10:24:45.327Z,8.05
2023-02-08T10:27:17.806Z,7.88
2023-02-08T10:30:15.310Z,9.25
2023-02-08T10:33:02.609Z,8.55
2023-02-08T10:35:39.976Z,8.30
2023-02-08T10:38:45.350Z,7.97
2023-02-08T10:44:36.212Z,9.10
2023-02-08T10:47:42.900Z,8.63
2023-02-08T10:50:46.447Z,8.43
2023-02-08T10:53:18.469Z,8.00
2023-02-08T10:55:51.848Z,8.20
2023-02-08T10:58:28.053Z,7.50
2023-02-08T11:00:55.483Z,7.10
2023-02-08T11:04:04.103Z,7.93
2023-02-08T11:06:34.941Z,8.23
2023-02-08T11:09:01.774Z,9.00
2023-02-08T11:11:38.565Z,7.32
2023-02-08T11:14:22.272Z,7.38
2023-02-08T11:17:03.072Z,6.90
2023-02-08T11:19:49.246Z,6.80
2023-02-08T11:22:22.221Z,7.00
2023-02-08T11:25:04.443Z,7.40
2023-02-08T11:28:02.377Z,7.30
2023-02-08T11:30:29.326Z,7.28
2023-02-08T11:33:21.892Z,7.55
2023-02-08T11:35:57.694Z,7.00
2023-02-08T11:38:29.407Z,6.13
2023-02-08T11:41:00.891Z,6.35
2023-02-08T11:43:36.897Z,5.80
2023-02-08T11:46:06.607Z,6.10
2023-02-08T11:48:42.806Z,5.93
2023-02-08T11:51:13.237Z,7.18
2023-02-08T11:53:45.958Z,9.15
2023-02-08T11:56:27.728Z,6.43
2023-02-08T11:58:57.160Z,6.25
2023-02-08T12:01:29.381Z,5.95
2023-02-08T12:03:59.441Z,6.72
2023-02-08T12:06:37.784Z,6.30
2023-02-08T12:09:18.518Z,6.43
2023-02-08T12:11:48.161Z,6.82
2023-02-08T12:14:18.499Z,7.07
2023-02-08T12:17:00.110Z,6.95
2023-02-08T12:19:53.336Z,5.63
2023-02-08T12:22:27.755Z,6.55
2023-02-08T12:25:20.348Z,6.13
2023-02-08T12:28:25.230Z,12.30
2023-02-08T12:31:01.840Z,9.77
2023-02-08T12:33:35.944Z,6.50
2023-02-08T12:36:26.986Z,7.97
2023-02-08T12:39:26.024Z,4.65
2023-02-08T12:42:11.234Z,5.38
2023-02-08T12:45:05.322Z,24.10
2023-02-08T12:48:04.005Z,25.70
2023-02-08T12:50:51.151Z,6.25
2023-02-08T12:53:31.624Z,7.15
2023-02-08T12:56:02.135Z,5.25
2023-02-08T12:58:45.595Z,4.13
2023-02-08T13:01:23.072Z,4.00
2023-02-08T13:04:16.420Z,3.85
2023-02-08T13:07:14.811Z,4.32
2023-02-08T13:10:06.429Z,4.63
2023-02-08T13:12:56.793Z,4.35
2023-02-08T13:15:36.265Z,4.53
2023-02-08T13:18:12.639Z,3.85
2023-02-08T13:20:51.296Z,4.00
2023-02-08T13:23:29.743Z,4.03
2023-02-08T13:26:01.845Z,3.60
2023-02-08T13:28:29.000Z,3.67
2023-02-08T13:31:11.444Z,3.88
2023-02-08T13:33:55.619Z,3.60
2023-02-08T13:37:01.912Z,4.68
2023-02-08T13:39:48.952Z,4.18
2023-02-08T13:42:30.458Z,3.47
2023-02-08T13:45:26.930Z,3.38
2023-02-08T13:48:00.824Z,3.58
2023-02-08T13:50:50.864Z,3.40
2023-02-08T13:53:37.826Z,3.28
2023-02-08T13:56:09.554Z,3.17
2023-02-08T13:58:48.801Z,4.00
2023-02-08T14:01:22.729Z,3.63
2023-02-08T14:04:07.589Z,3.88
2023-02-08T14:07:11.122Z,3.65
2023-02-08T14:10:01.862Z,3.80
2023-02-08T14:15:44.128Z,4.07
2023-02-08T14:18:30.297Z,3.63
2023-02-08T14:21:33.544Z,2.85
2023-02-08T14:25:02.324Z,2.75
2023-02-08T14:27:57.157Z,2.42
2023-02-08T14:30:30.255Z,2.33
2023-02-08T14:33:08.427Z,1.83
2023-02-08T14:35:38.916Z,2.33
2023-02-08T14:38:20.680Z,2.30
2023-02-08T14:40:50.380Z,2.35
2023-02-08T14:43:19.770Z,2.70
2023-02-08T14:48:42.532Z,2.72
2023-02-08T14:51:11.989Z,2.33
2023-02-08T14:56:33.709Z,2.13
2023-02-08T14:59:06.600Z,2.85
2023-02-08T15:01:48.812Z,2.85
2023-02-08T15:04:18.103Z,2.20
2023-02-08T15:07:14.548Z,4.15
2023-02-08T15:09:43.454Z,3.78
2023-02-08T15:12:31.644Z,3.75
2023-02-08T15:15:00.861Z,3.67
2023-02-08T15:17:57.238Z,5.53
2023-02-08T15:20:27.628Z,5.68
2023-02-08T15:23:18.697Z,3.70
2023-02-08T15:25:55.023Z,3.20
2023-02-08T15:28:24.191Z,3.75
2023-02-08T15:31:10.786Z,5.15
2023-02-08T15:33:39.302Z,3.72
2023-02-08T15:36:16.278Z,3.63
2023-02-08T15:38:44.930Z,3.55
2023-02-08T15:41:33.827Z,4.13
2023-02-08T15:44:23.127Z,3.28
2023-02-08T15:49:30.247Z,3.70
2023-02-08T15:51:57.755Z,3.10
2023-02-08T15:54:24.928Z,3.13
2023-02-08T15:56:59.377Z,3.03
2023-02-08T15:59:29.272Z,2.40
2023-02-08T16:01:58.270Z,2.60
2023-02-08T16:04:25.736Z,3.08
2023-02-08T16:07:00.622Z,3.15
2023-02-08T16:09:28.926Z,3.17
2023-02-08T16:11:59.188Z,2.83
2023-02-08T16:14:29.842Z,3.10
2023-02-08T16:16:58.290Z,2.88
2023-02-08T16:19:29.133Z,3.20
2023-02-08T16:22:25.786Z,2.95
2023-02-08T16:24:52.403Z,3.95
2023-02-08T16:27:30.084Z,3.47
2023-02-08T16:29:57.074Z,3.28
2023-02-08T16:32:39.569Z,3.90
2023-02-08T16:35:29.462Z,3.92
2023-02-08T16:38:02.626Z,4.13
2023-02-08T16:41:12.603Z,3.67
2023-02-08T16:43:47.738Z,4.00
2023-02-08T16:46:14.879Z,4.03
2023-02-08T16:48:42.511Z,4.22
2023-02-08T16:51:16.710Z,4.53
2023-02-08T16:53:47.624Z,4.53
2023-02-08T16:56:14.676Z,4.07
2023-02-08T16:58:41.266Z,4.35
2023-02-08T17:01:14.005Z,5.78
2023-02-08T17:03:57.379Z,5.22
2023-02-08T17:06:30.153Z,4.10
2023-02-08T17:09:25.616Z,4.78
2023-02-08T17:12:21.862Z,4.50
2023-02-08T17:15:07.873Z,4.57
2023-02-08T17:17:54.359Z,4.30
2023-02-08T17:20:40.240Z,4.78
2023-02-08T17:23:27.179Z,4.65
2023-02-08T17:26:17.459Z,5.47
2023-02-08T17:29:04.483Z,5.20
2023-02-08T17:31:51.292Z,5.38
2023-02-08T17:34:39.529Z,5.40
2023-02-08T17:37:26.366Z,5.72
2023-02-08T17:40:14.365Z,5.28
2023-02-08T17:43:01.745Z,5.85
2023-02-08T17:45:48.578Z,5.10
2023-02-08T17:48:35.345Z,6.20
2023-02-08T17:51:24.024Z,6.40
2023-02-08T17:54:12.156Z,5.72
2023-02-08T17:56:59.773Z,5.70
2023-02-08T17:59:46.756Z,6.70
2023-02-08T18:02:33.597Z,6.55
2023-02-08T18:05:24.152Z,5.90
2023-02-08T18:08:10.902Z,6.10
2023-02-08T18:11:06.234Z,5.85
2023-02-08T18:13:54.202Z,6.32
2023-02-08T18:16:41.146Z,6.47
2023-02-08T18:19:07.801Z,7.50
2023-02-08T18:21:52.647Z,9.65
2023-02-08T18:24:54.118Z,7.00
2023-02-08T18:27:40.010Z,7.82
2023-02-08T18:30:07.729Z,7.72
2023-02-08T18:32:34.214Z,7.07
2023-02-08T18:35:03.432Z,6.75
2023-02-08T18:37:30.656Z,7.13
2023-02-08T18:39:57.229Z,7.38
2023-02-08T18:42:23.691Z,6.80
2023-02-08T18:44:50.244Z,7.03
2023-02-08T18:47:16.771Z,7.05
2023-02-08T18:49:43.325Z,6.95
2023-02-08T18:52:11.819Z,7.30
2023-02-08T18:54:56.904Z,7.05
2023-02-08T18:57:23.490Z,7.05
2023-02-08T18:59:50.029Z,8.55
2023-02-08T19:02:36.548Z,9.13
2023-02-08T19:05:21.344Z,8.23
2023-02-08T19:07:47.846Z,8.38
2023-02-08T19:10:14.357Z,8.43
2023-02-08T19:12:58.083Z,8.25
2023-02-08T19:15:44.708Z,8.20
2023-02-08T19:18:32.924Z,8.38
2023-02-08T19:21:20.106Z,7.90
2023-02-08T19:23:48.245Z,8.30
2023-02-08T19:26:36.939Z,8.10
2023-02-08T19:29:22.755Z,8.48
2023-02-08T19:32:09.562Z,8.63
2023-02-08T19:34:56.988Z,8.68
2023-02-08T19:37:45.558Z,9.63
2023-02-08T19:40:32.396Z,9.00
2023-02-08T19:43:19.143Z,9.35
2023-02-08T19:45:46.306Z,10.60
2023-02-08T19:48:31.653Z,11.02
2023-02-08T19:51:17.873Z,10.02
2023-02-08T19:54:08.476Z,9.50
2023-02-08T19:56:55.770Z,9.20
2023-02-08T19:59:43.506Z,8.55
2023-02-08T20:02:30.267Z,8.52
2023-02-08T20:05:17.133Z,9.20
2023-02-08T20:08:04.064Z,8.45
2023-02-08T20:10:50.845Z,8.05
2023-02-08T20:13:37.743Z,9.23
2023-02-08T20:16:25.060Z,9.27
2023-02-08T20:19:13.096Z,9.23
2023-02-08T20:21:59.901Z,8.55
2023-02-08T20:24:46.929Z,7.65
2023-02-08T20:27:33.752Z,8.15
2023-02-08T20:30:00.741Z,8.52
2023-02-08T20:32:27.579Z,7.95
2023-02-08T20:34:59.890Z,7.75
2023-02-08T20:37:28.456Z,8.05
2023-02-08T20:40:15.382Z,8.50
2023-02-08T20:42:41.913Z,9.53
2023-02-08T20:45:08.964Z,9.20
2023-02-08T20:47:45.971Z,9.32
2023-02-08T20:50:19.520Z,8.93
2023-02-08T20:52:49.007Z,8.93
2023-02-08T20:55:34.371Z,8.45
2023-02-08T20:58:00.854Z,8.57
2023-02-08T21:00:36.756Z,8.40
2023-02-08T21:03:08.284Z,8.07
2023-02-08T21:05:34.812Z,8.75
2023-02-08T21:08:01.276Z,8.07
2023-02-08T21:10:27.706Z,9.15
2023-02-08T21:12:54.254Z,8.77
2023-02-08T21:15:20.794Z,8.60
2023-02-08T21:17:47.337Z,8.20
2023-02-08T21:20:15.032Z,8.82
2023-02-08T21:22:41.766Z,8.23
2023-02-08T21:25:26.764Z,7.90
2023-02-08T21:27:53.331Z,8.57
2023-02-08T21:30:20.558Z,8.82
2023-02-08T21:32:47.010Z,7.97
2023-02-08T21:35:13.490Z,8.23
2023-02-08T21:37:40.761Z,8.32
2023-02-08T21:40:07.419Z,8.23
2023-02-08T21:42:33.906Z,8.00
2023-02-08T21:45:00.417Z,8.27
2023-02-08T21:47:26.943Z,8.90
2023-02-08T21:50:12.151Z,8.57
2023-02-08T21:52:57.219Z,7.68
2023-02-08T21:55:23.759Z,7.35
2023-02-08T21:57:51.535Z,8.38
2023-02-08T22:00:18.132Z,7.85
2023-02-08T22:02:44.847Z,7.82
2023-02-08T22:05:29.934Z,7.43
2023-02-08T22:07:57.889Z,7.82
2023-02-08T22:10:27.678Z,7.97
2023-02-08T22:12:55.157Z,8.05
2023-02-08T22:15:25.287Z,8.27
2023-02-08T22:17:55.581Z,7.43
2023-02-08T22:20:22.346Z,8.13
2023-02-08T22:22:52.630Z,8.27
2023-02-08T22:25:21.156Z,7.82
2023-02-08T22:28:23.899Z,8.30
2023-02-08T22:30:50.905Z,8.60
2023-02-08T22:33:17.461Z,9.55
2023-02-08T22:35:43.932Z,7.95
2023-02-08T22:38:13.081Z,7.80
2023-02-08T22:40:41.718Z,7.72
2023-02-08T22:43:08.231Z,8.63
2023-02-08T22:45:34.775Z,8.57
2023-02-08T22:48:01.274Z,7.60
2023-02-08T22:50:27.822Z,7.90
2023-02-08T22:52:54.316Z,8.15
2023-02-08T22:55:25.672Z,8.32
2023-02-08T22:57:52.188Z,7.72
2023-02-08T23:00:18.769Z,8.07
2023-02-08T23:02:45.364Z,8.30
2023-02-08T23:05:12.042Z,8.27
2023-02-08T23:07:38.591Z,8.60
2023-02-08T23:10:05.192Z,8.05
2023-02-08T23:12:31.716Z,7.85
2023-02-08T23:14:58.155Z,8.27
2023-02-08T23:17:24.756Z,7.80
2023-02-08T23:19:52.524Z,8.10
2023-02-08T23:22:19.012Z,8.75
2023-02-08T23:24:45.612Z,8.90
2023-02-08T23:27:12.175Z,8.27
2023-02-08T23:29:38.689Z,8.80
2023-02-08T23:32:05.266Z,8.75
2023-02-08T23:34:34.162Z,8.52
2023-02-08T23:37:14.903Z,8.35
2023-02-08T23:39:41.655Z,9.15
2023-02-08T23:42:25.273Z,9.55
2023-02-08T23:44:56.315Z,8.70
2023-02-08T23:47:24.386Z,9.48
2023-02-08T23:49:51.455Z,11.15
2023-02-08T23:52:18.120Z,11.07
2023-02-08T23:54:51.114Z,10.27
2023-02-08T23:57:18.499Z,10.95
2023-02-08T23:59:44.971Z,10.25
